createdAt,value
2018-10-18T00:00:02.532Z,15.34
2018-10-18T00:01:02.495Z,15.41
2018-10-18T00:02:02.559Z,15.28
2018-10-18T00:03:02.483Z,15.35
2018-10-18T00:04:02.479Z,15.37
2018-10-18T00:05:02.471Z,15.35
2018-10-18T00:06:02.509Z,15.37
2018-10-18T00:07:02.465Z,15.41
2018-10-18T00:08:02.512Z,15.35
2018-10-18T00:09:02.450Z,15.33
2018-10-18T00:10:02.447Z,15.38
2018-10-18T00:11:02.440Z,15.34
2018-10-18T00:12:02.498Z,15.33
2018-10-18T00:13:02.436Z,15.31
2018-10-18T00:14:02.523Z,15.37
2018-10-18T00:15:02.422Z,15.37
2018-10-18T00:16:02.415Z,15.38
2018-10-18T00:17:02.417Z,15.40
2018-10-18T00:18:02.438Z,15.33
2018-10-18T00:19:02.408Z,15.34
2018-10-18T00:20:02.451Z,15.31
2018-10-18T00:21:02.393Z,15.33
2018-10-18T00:22:02.388Z,15.31
2018-10-18T00:23:02.388Z,15.31
2018-10-18T00:24:02.453Z,15.28
2018-10-18T00:25:02.372Z,15.28
2018-10-18T00:26:02.444Z,15.33
2018-10-18T00:27:02.363Z,15.31
2018-10-18T00:28:02.357Z,15.31
2018-10-18T00:29:02.357Z,15.34
2018-10-18T00:30:02.412Z,15.28
2018-10-18T00:31:02.348Z,15.31
2018-10-18T00:32:02.392Z,15.20
2018-10-18T00:33:02.333Z,15.22
2018-10-18T00:34:02.328Z,15.18
2018-10-18T00:35:02.325Z,15.15
2018-10-18T00:36:02.376Z,15.28
2018-10-18T00:37:02.320Z,15.27
2018-10-18T00:38:02.414Z,15.25
2018-10-18T00:39:02.304Z,15.19
2018-10-18T00:40:02.303Z,15.13
2018-10-18T00:41:02.299Z,15.25
2018-10-18T00:42:02.369Z,15.20
2018-10-18T00:43:02.289Z,15.18
2018-10-18T00:44:02.346Z,15.15
2018-10-18T00:45:02.274Z,15.15
2018-10-18T00:46:02.270Z,15.19
2018-10-18T00:47:02.264Z,15.25
2018-10-18T00:48:02.300Z,15.18
2018-10-18T00:49:02.258Z,15.22
2018-10-18T00:50:02.310Z,15.19
2018-10-18T00:51:02.251Z,15.16
2018-10-18T00:52:02.246Z,15.12
2018-10-18T00:53:02.236Z,15.16
2018-10-18T00:54:02.238Z,15.15
2018-10-18T00:55:02.230Z,15.15
2018-10-18T00:56:02.312Z,15.19
2018-10-18T00:57:02.216Z,15.15
2018-10-18T00:58:02.212Z,15.09
2018-10-18T00:59:02.205Z,15.16
2018-10-18T01:00:02.267Z,15.13
2018-10-18T01:01:02.200Z,15.07
2018-10-18T01:02:02.231Z,15.13
2018-10-18T01:03:02.190Z,15.12
2018-10-18T01:04:02.184Z,15.15
2018-10-18T01:05:02.175Z,15.15
2018-10-18T01:06:02.203Z,15.13
2018-10-18T01:07:02.166Z,15.16
2018-10-18T01:08:02.171Z,15.11
2018-10-18T01:09:02.160Z,15.13
2018-10-18T01:10:02.156Z,15.09
2018-10-18T01:11:02.145Z,15.07
2018-10-18T01:12:02.221Z,15.07
2018-10-18T01:13:02.140Z,14.98
2018-10-18T01:14:02.192Z,15.01
2018-10-18T01:15:02.130Z,15.07
2018-10-18T01:16:02.125Z,14.98
2018-10-18T01:17:02.114Z,14.94
2018-10-18T01:18:02.175Z,14.95
2018-10-18T01:19:02.107Z,14.91
2018-10-18T01:20:02.155Z,14.91
2018-10-18T01:21:02.100Z,14.93
2018-10-18T01:22:02.096Z,14.87
2018-10-18T01:23:02.093Z,14.91
2018-10-18T01:24:02.145Z,14.87
2018-10-18T01:25:02.075Z,14.87
2018-10-18T01:26:02.156Z,14.90
2018-10-18T01:27:02.069Z,14.87
2018-10-18T01:28:02.065Z,14.93
2018-10-18T01:29:02.055Z,14.95
2018-10-18T01:30:02.119Z,14.91
2018-10-18T01:31:02.045Z,14.93
2018-10-18T01:32:02.092Z,14.85
2018-10-18T01:33:02.039Z,14.83
2018-10-18T01:34:02.033Z,14.85
2018-10-18T01:35:02.030Z,14.86
2018-10-18T01:36:02.087Z,14.79
2018-10-18T01:37:02.014Z,14.74
2018-10-18T01:38:02.078Z,14.80
2018-10-18T01:39:02.005Z,14.78
2018-10-18T01:40:02.044Z,14.83
2018-10-18T01:41:02.002Z,14.86
2018-10-18T01:42:02.053Z,14.80
2018-10-18T01:43:01.983Z,14.78
2018-10-18T01:44:02.038Z,14.87
2018-10-18T01:45:01.976Z,14.90
2018-10-18T01:46:01.972Z,14.93
2018-10-18T01:47:01.969Z,14.91
2018-10-18T01:48:01.970Z,14.91
2018-10-18T01:49:01.953Z,14.93
2018-10-18T01:50:01.998Z,14.87
2018-10-18T01:51:01.942Z,14.91
2018-10-18T01:52:01.936Z,14.90
2018-10-18T01:53:01.937Z,14.93
2018-10-18T01:54:02.033Z,14.87
2018-10-18T01:55:01.944Z,14.80
2018-10-18T01:56:01.999Z,14.83
2018-10-18T01:57:01.951Z,14.86
2018-10-18T01:58:01.905Z,14.86
2018-10-18T01:59:01.905Z,14.78
2018-10-18T02:00:01.987Z,14.78
2018-10-18T02:01:01.894Z,14.80
2018-10-18T02:02:01.892Z,14.80
2018-10-18T02:03:01.880Z,14.80
2018-10-18T02:04:01.875Z,14.78
2018-10-18T02:05:01.876Z,14.74
2018-10-18T02:06:01.897Z,14.78
2018-10-18T02:07:01.864Z,14.85
2018-10-18T02:08:01.937Z,14.85
2018-10-18T02:09:01.849Z,14.85
2018-10-18T02:10:01.844Z,14.79
2018-10-18T02:11:01.839Z,14.69
2018-10-18T02:12:01.911Z,14.82
2018-10-18T02:13:01.834Z,14.74
2018-10-18T02:14:01.827Z,14.80
2018-10-18T02:15:01.820Z,14.75
2018-10-18T02:16:01.815Z,14.83
2018-10-18T02:17:01.815Z,14.83
2018-10-18T02:18:01.859Z,14.79
2018-10-18T02:19:01.806Z,14.82
2018-10-18T02:20:01.803Z,14.74
2018-10-18T02:21:01.792Z,14.72
2018-10-18T02:22:01.784Z,14.79
2018-10-18T02:23:01.778Z,14.78
2018-10-18T02:24:01.827Z,14.79
2018-10-18T02:25:01.833Z,14.78
2018-10-18T02:26:01.766Z,14.78
2018-10-18T02:27:01.762Z,14.87
2018-10-18T02:28:01.759Z,14.87
2018-10-18T02:29:01.748Z,14.83
2018-10-18T02:30:01.855Z,14.78
2018-10-18T02:31:01.742Z,14.85
2018-10-18T02:32:01.739Z,14.93
2018-10-18T02:33:01.726Z,14.86
2018-10-18T02:34:01.721Z,14.87
2018-10-18T02:35:01.715Z,14.90
2018-10-18T02:36:01.800Z,14.86
2018-10-18T02:37:01.709Z,14.93
2018-10-18T02:38:01.704Z,14.95
2018-10-18T02:39:01.700Z,14.97
2018-10-18T02:40:01.697Z,14.95
2018-10-18T02:41:01.684Z,15.01
2018-10-18T02:42:01.712Z,14.98
2018-10-18T02:43:01.682Z,15.00
2018-10-18T02:44:01.669Z,15.05
2018-10-18T02:45:01.670Z,15.05
2018-10-18T02:46:01.665Z,15.11
2018-10-18T02:47:01.654Z,15.03
2018-10-18T02:48:01.679Z,15.03
2018-10-18T02:49:01.649Z,15.11
2018-10-18T02:50:01.644Z,15.03
2018-10-18T02:51:01.640Z,15.01
2018-10-18T02:52:01.633Z,15.01
2018-10-18T02:53:01.624Z,15.03
2018-10-18T02:54:01.700Z,15.03
2018-10-18T02:55:01.615Z,15.09
2018-10-18T02:56:01.609Z,15.00
2018-10-18T02:57:01.610Z,14.98
2018-10-18T02:58:01.604Z,15.04
2018-10-18T02:59:01.599Z,15.01
2018-10-18T03:00:01.697Z,15.01
2018-10-18T03:01:01.584Z,15.01
2018-10-18T03:02:01.578Z,14.93
2018-10-18T03:03:01.582Z,14.93
2018-10-18T03:04:01.573Z,14.91
2018-10-18T03:05:01.585Z,14.95
2018-10-18T03:06:01.635Z,14.85
2018-10-18T03:07:01.553Z,14.91
2018-10-18T03:08:01.550Z,14.87
2018-10-18T03:09:01.548Z,14.86
2018-10-18T03:10:01.541Z,14.93
2018-10-18T03:11:01.538Z,14.87
2018-10-18T03:12:01.583Z,14.91
2018-10-18T03:13:01.522Z,14.91
2018-10-18T03:14:01.516Z,14.87
2018-10-18T03:15:01.520Z,14.93
2018-10-18T03:16:01.731Z,14.87
2018-10-18T03:17:01.508Z,14.90
2018-10-18T03:18:01.559Z,14.87
2018-10-18T03:19:01.491Z,14.87
2018-10-18T03:20:01.485Z,14.91
2018-10-18T03:21:01.485Z,14.87
2018-10-18T03:22:01.491Z,14.91
2018-10-18T03:23:01.474Z,14.91
2018-10-18T03:24:01.480Z,14.95
2018-10-18T03:25:01.460Z,14.87
2018-10-18T03:26:01.454Z,14.90
2018-10-18T03:27:01.450Z,14.87
2018-10-18T03:28:01.445Z,14.86
2018-10-18T03:29:01.447Z,14.79
2018-10-18T03:30:01.504Z,14.87
2018-10-18T03:31:01.441Z,14.86
2018-10-18T03:32:01.431Z,14.87
2018-10-18T03:33:01.418Z,14.90
2018-10-18T03:34:01.414Z,14.86
2018-10-18T03:35:01.412Z,14.83
2018-10-18T03:36:01.454Z,14.94
2018-10-18T03:37:01.397Z,14.91
2018-10-18T03:38:01.392Z,14.90
2018-10-18T03:39:01.394Z,14.93
2018-10-18T03:40:01.397Z,14.93
2018-10-18T03:41:01.383Z,14.91
2018-10-18T03:42:01.414Z,14.86
2018-10-18T03:43:01.377Z,14.93
2018-10-18T03:44:01.368Z,14.85
2018-10-18T03:45:01.357Z,14.86
2018-10-18T03:46:01.351Z,14.87
2018-10-18T03:47:01.346Z,14.91
2018-10-18T03:48:01.367Z,14.93
2018-10-18T03:49:01.340Z,14.87
2018-10-18T03:50:01.336Z,14.98
2018-10-18T03:51:01.326Z,14.94
2018-10-18T03:52:01.320Z,15.01
2018-10-18T03:53:01.320Z,15.01
2018-10-18T03:54:01.368Z,15.15
2018-10-18T03:55:01.311Z,15.15
2018-10-18T03:56:01.304Z,15.20
2018-10-18T03:57:01.297Z,15.11
2018-10-18T03:58:01.294Z,15.23
2018-10-18T03:59:01.287Z,15.18
2018-10-18T04:00:01.323Z,15.15
2018-10-18T04:01:01.281Z,15.34
2018-10-18T04:02:01.281Z,15.33
2018-10-18T04:03:01.275Z,15.38
2018-10-18T04:04:01.265Z,15.31
2018-10-18T04:05:01.255Z,15.43
2018-10-18T04:06:01.346Z,15.34
2018-10-18T04:07:01.252Z,15.40
2018-10-18T04:08:01.245Z,15.55
2018-10-18T04:09:01.235Z,15.46
2018-10-18T04:10:01.231Z,15.58
2018-10-18T04:11:01.228Z,15.52
2018-10-18T04:12:01.302Z,15.53
2018-10-18T04:13:01.294Z,15.64
2018-10-18T04:14:01.217Z,15.60
2018-10-18T04:15:01.213Z,15.64
2018-10-18T04:16:01.207Z,15.64
2018-10-18T04:17:01.200Z,15.64
2018-10-18T04:18:01.329Z,15.67
2018-10-18T04:19:01.189Z,15.66
2018-10-18T04:20:01.184Z,15.67
2018-10-18T04:21:01.185Z,15.68
2018-10-18T04:22:01.181Z,15.67
2018-10-18T04:23:01.169Z,15.76
2018-10-18T04:24:01.174Z,15.67
2018-10-18T04:25:01.165Z,15.68
2018-10-18T04:26:01.160Z,15.74
2018-10-18T04:27:01.157Z,15.70
2018-10-18T04:28:01.150Z,15.67
2018-10-18T04:29:01.142Z,15.76
2018-10-18T04:30:01.200Z,15.80
2018-10-18T04:31:01.137Z,15.74
2018-10-18T04:32:01.128Z,15.80
2018-10-18T04:33:01.127Z,15.77
2018-10-18T04:34:01.125Z,15.77
2018-10-18T04:35:01.119Z,15.84
2018-10-18T04:36:01.193Z,15.85
2018-10-18T04:37:01.104Z,15.86
2018-10-18T04:38:01.100Z,15.86
2018-10-18T04:39:01.137Z,15.86
2018-10-18T04:40:01.094Z,15.89
2018-10-18T04:41:01.085Z,15.86
2018-10-18T04:42:01.084Z,15.85
2018-10-18T04:43:01.077Z,15.84
2018-10-18T04:44:01.072Z,15.99
2018-10-18T04:45:01.073Z,15.98
2018-10-18T04:46:01.068Z,15.84
2018-10-18T04:47:01.093Z,16.01
2018-10-18T04:48:01.210Z,16.04
2018-10-18T04:49:01.155Z,15.92
2018-10-18T04:50:01.045Z,15.96
2018-10-18T04:51:01.040Z,15.93
2018-10-18T04:52:01.034Z,15.93
2018-10-18T04:53:01.036Z,15.92
2018-10-18T04:54:01.031Z,15.98
2018-10-18T04:55:01.054Z,15.95
2018-10-18T04:56:01.016Z,16.04
2018-10-18T04:57:01.159Z,16.04
2018-10-18T04:58:01.012Z,16.06
2018-10-18T04:59:01.009Z,16.01
2018-10-18T05:00:01.003Z,16.07
2018-10-18T05:01:01.005Z,16.06
2018-10-18T05:02:00.992Z,16.03
2018-10-18T05:03:00.990Z,16.03
2018-10-18T05:04:00.981Z,16.07
2018-10-18T05:05:00.983Z,16.10
2018-10-18T05:06:00.980Z,16.07
2018-10-18T05:07:01.024Z,16.07
2018-10-18T05:08:00.966Z,16.01
2018-10-18T05:09:00.959Z,15.99
2018-10-18T05:10:00.955Z,16.06
2018-10-18T05:11:00.957Z,16.06
2018-10-18T05:12:00.949Z,15.99
2018-10-18T05:13:00.966Z,16.01
2018-10-18T05:14:00.936Z,16.06
2018-10-18T05:15:00.932Z,16.03
2018-10-18T05:16:00.927Z,15.92
2018-10-18T05:17:00.928Z,15.89
2018-10-18T05:18:00.923Z,15.95
2018-10-18T05:19:00.945Z,15.95
2018-10-18T05:20:00.913Z,15.88
2018-10-18T05:21:00.905Z,15.91
2018-10-18T05:22:00.899Z,15.89
2018-10-18T05:23:00.895Z,15.76
2018-10-18T05:24:00.889Z,15.77
2018-10-18T05:25:00.938Z,15.73
2018-10-18T05:26:00.885Z,15.68
2018-10-18T05:27:00.876Z,15.68
2018-10-18T05:28:00.872Z,15.66
2018-10-18T05:29:00.871Z,15.62
2018-10-18T05:30:00.867Z,15.62
2018-10-18T05:31:00.869Z,15.67
2018-10-18T05:32:00.857Z,15.56
2018-10-18T05:33:00.847Z,15.62
2018-10-18T05:34:00.845Z,15.60
2018-10-18T05:35:00.839Z,15.60
2018-10-18T05:36:00.833Z,15.55
2018-10-18T05:37:00.876Z,15.60
2018-10-18T05:38:00.832Z,15.60
2018-10-18T05:39:00.825Z,15.62
2018-10-18T05:40:00.822Z,15.64
2018-10-18T05:41:00.810Z,15.58
2018-10-18T05:42:00.806Z,15.64
2018-10-18T05:43:00.842Z,15.58
2018-10-18T05:44:00.800Z,15.64
2018-10-18T05:45:00.790Z,15.53
2018-10-18T05:46:00.790Z,15.59
2018-10-18T05:47:00.810Z,15.68
2018-10-18T05:48:00.776Z,15.62
2018-10-18T05:49:00.810Z,15.62
2018-10-18T05:50:00.772Z,15.64
2018-10-18T05:51:00.768Z,15.68
2018-10-18T05:52:00.762Z,15.71
2018-10-18T05:53:00.804Z,15.74
2018-10-18T05:54:00.893Z,15.77
2018-10-18T05:55:00.751Z,15.74
2018-10-18T05:56:00.741Z,15.78
2018-10-18T05:57:00.743Z,15.71
2018-10-18T05:58:00.735Z,15.74
2018-10-18T05:59:00.726Z,15.80
2018-10-18T06:00:00.723Z,15.88
2018-10-18T06:01:00.752Z,15.89
2018-10-18T06:02:00.716Z,15.77
2018-10-18T06:03:00.714Z,15.85
2018-10-18T06:04:00.705Z,15.84
2018-10-18T06:05:00.697Z,15.86
2018-10-18T06:06:00.692Z,15.91
2018-10-18T06:07:00.737Z,15.92
2018-10-18T06:08:00.683Z,15.89
2018-10-18T06:09:00.683Z,15.93
2018-10-18T06:10:00.828Z,15.98
2018-10-18T06:11:00.676Z,15.99
2018-10-18T06:12:00.680Z,15.89
2018-10-18T06:13:00.705Z,15.91
2018-10-18T06:14:00.656Z,15.93
2018-10-18T06:15:00.657Z,16.04
2018-10-18T06:16:00.652Z,16.06
2018-10-18T06:17:00.641Z,16.04
2018-10-18T06:18:00.641Z,15.99
2018-10-18T06:19:00.684Z,16.07
2018-10-18T06:20:00.633Z,15.98
2018-10-18T06:21:00.628Z,16.03
2018-10-18T06:22:00.624Z,16.08
2018-10-18T06:23:00.631Z,16.13
2018-10-18T06:24:00.614Z,16.10
2018-10-18T06:25:00.614Z,16.22
2018-10-18T06:26:00.602Z,16.25
2018-10-18T06:27:00.598Z,16.27
2018-10-18T06:28:00.592Z,16.25
2018-10-18T06:29:00.624Z,16.30
2018-10-18T06:30:00.590Z,16.32
2018-10-18T06:31:00.600Z,16.23
2018-10-18T06:32:00.578Z,16.37
2018-10-18T06:33:00.652Z,16.33
2018-10-18T06:34:00.572Z,16.33
2018-10-18T06:35:00.570Z,16.42
2018-10-18T06:36:00.564Z,16.36
2018-10-18T06:37:00.597Z,16.48
2018-10-18T06:38:00.549Z,16.50
2018-10-18T06:39:00.566Z,16.44
2018-10-18T06:40:00.540Z,16.54
2018-10-18T06:41:00.574Z,16.50
2018-10-18T06:42:00.538Z,16.55
2018-10-18T06:43:00.553Z,16.69
2018-10-18T06:44:00.527Z,16.66
2018-10-18T06:45:00.519Z,16.69
2018-10-18T06:46:00.515Z,16.75
2018-10-18T06:47:00.561Z,16.82
2018-10-18T06:48:00.554Z,16.80
2018-10-18T06:49:00.610Z,16.78
2018-10-18T06:50:00.508Z,16.90
2018-10-18T06:51:00.494Z,16.82
2018-10-18T06:52:00.489Z,17.06
2018-10-18T06:53:00.491Z,17.06
2018-10-18T06:54:00.547Z,17.27
2018-10-18T06:55:00.536Z,17.30
2018-10-18T06:56:00.479Z,17.43
2018-10-18T06:57:00.470Z,17.47
2018-10-18T06:58:00.467Z,17.55
2018-10-18T06:59:00.463Z,17.58
2018-10-18T07:00:00.566Z,17.49
2018-10-18T07:01:00.460Z,17.57
2018-10-18T07:02:00.457Z,17.53
2018-10-18T07:03:00.447Z,17.58
2018-10-18T07:04:00.443Z,17.49
2018-10-18T07:05:00.444Z,17.51
2018-10-18T07:06:00.444Z,17.51
2018-10-18T07:07:00.439Z,17.40
2018-10-18T07:08:00.433Z,17.42
2018-10-18T07:09:00.447Z,17.43
2018-10-18T07:10:00.420Z,17.39
2018-10-18T07:11:00.557Z,17.42
2018-10-18T07:12:00.435Z,17.30
2018-10-18T07:13:00.415Z,17.25
2018-10-18T07:14:00.412Z,17.21
2018-10-18T07:15:00.407Z,17.25
2018-10-18T07:16:00.403Z,17.27
2018-10-18T07:17:00.396Z,17.25
2018-10-18T07:18:00.458Z,17.15
2018-10-18T07:19:00.392Z,17.14
2018-10-18T07:20:00.388Z,17.07
2018-10-18T07:21:00.380Z,17.14
2018-10-18T07:22:00.377Z,17.06
2018-10-18T07:23:00.373Z,17.06
2018-10-18T07:24:00.429Z,17.07
2018-10-18T07:25:00.377Z,17.12
2018-10-18T07:26:00.366Z,17.06
2018-10-18T07:27:00.363Z,17.05
2018-10-18T07:28:00.360Z,17.03
2018-10-18T07:29:00.352Z,17.18
2018-10-18T07:30:00.367Z,17.12
2018-10-18T07:31:00.343Z,17.10
2018-10-18T07:32:00.340Z,17.02
2018-10-18T07:33:00.339Z,17.06
2018-10-18T07:34:00.337Z,17.02
2018-10-18T07:35:00.442Z,17.07
2018-10-18T07:36:00.398Z,17.09
2018-10-18T07:37:00.324Z,17.09
2018-10-18T07:38:00.320Z,17.03
2018-10-18T07:39:00.318Z,16.90
2018-10-18T07:40:00.313Z,17.06
2018-10-18T07:41:00.371Z,17.07
2018-10-18T07:42:00.338Z,17.02
2018-10-18T07:43:00.299Z,17.12
2018-10-18T07:44:00.293Z,17.07
2018-10-18T07:45:00.294Z,17.05
2018-10-18T07:46:00.290Z,17.06
2018-10-18T07:47:00.376Z,17.09
2018-10-18T07:48:00.305Z,17.07
2018-10-18T07:49:00.274Z,17.03
2018-10-18T07:50:00.271Z,17.07
2018-10-18T07:51:00.274Z,17.03
2018-10-18T07:52:00.272Z,16.98
2018-10-18T07:53:00.290Z,17.05
2018-10-18T07:54:00.262Z,16.95
2018-10-18T07:55:00.254Z,16.87
2018-10-18T07:56:00.249Z,16.99
2018-10-18T07:57:00.250Z,16.96
2018-10-18T07:58:00.246Z,17.02
2018-10-18T07:59:00.246Z,17.07
2018-10-18T08:00:00.324Z,16.91
2018-10-18T08:01:00.230Z,17.07
2018-10-18T08:02:00.227Z,17.02
2018-10-18T08:03:00.224Z,16.98
2018-10-18T08:04:00.219Z,16.95
2018-10-18T08:05:00.220Z,17.02
2018-10-18T08:06:00.216Z,17.02
2018-10-18T08:07:00.263Z,16.95
2018-10-18T08:08:00.205Z,16.96
2018-10-18T08:09:00.212Z,17.05
2018-10-18T08:10:00.297Z,17.03
2018-10-18T08:11:00.271Z,16.92
2018-10-18T08:12:00.195Z,17.06
2018-10-18T08:13:00.226Z,17.09
2018-10-18T08:14:00.182Z,17.06
2018-10-18T08:15:00.179Z,17.07
2018-10-18T08:16:00.175Z,17.12
2018-10-18T08:17:00.304Z,17.12
2018-10-18T08:18:00.172Z,17.10
2018-10-18T08:19:00.224Z,17.17
2018-10-18T08:20:00.165Z,17.15
2018-10-18T08:21:00.157Z,17.14
2018-10-18T08:22:00.152Z,17.09
2018-10-18T08:23:00.154Z,17.12
2018-10-18T08:24:00.150Z,17.10
2018-10-18T08:25:00.204Z,17.12
2018-10-18T08:26:00.138Z,17.12
2018-10-18T08:27:00.137Z,17.14
2018-10-18T08:28:00.131Z,17.14
2018-10-18T08:29:00.131Z,17.12
2018-10-18T08:30:00.128Z,17.10
2018-10-18T08:31:00.154Z,17.06
2018-10-18T08:32:00.120Z,17.03
2018-10-18T08:33:00.114Z,16.95
2018-10-18T08:34:00.109Z,16.88
2018-10-18T08:35:00.106Z,16.87
2018-10-18T08:36:00.100Z,16.77
2018-10-18T08:37:00.118Z,16.77
2018-10-18T08:38:00.288Z,16.78
2018-10-18T08:39:00.094Z,16.72
2018-10-18T08:40:00.085Z,16.63
2018-10-18T08:41:00.093Z,16.52
2018-10-18T08:42:00.084Z,16.60
2018-10-18T08:43:00.131Z,16.62
2018-10-18T08:44:00.191Z,16.65
2018-10-18T08:45:00.072Z,16.60
2018-10-18T08:46:00.064Z,16.62
2018-10-18T08:47:00.060Z,16.67
2018-10-18T08:48:00.055Z,16.60
2018-10-18T08:49:00.108Z,16.63
2018-10-18T08:50:00.105Z,16.62
2018-10-18T08:51:00.047Z,16.66
2018-10-18T08:52:00.044Z,16.73
2018-10-18T08:53:00.035Z,16.78
2018-10-18T08:54:00.034Z,16.82
2018-10-18T08:55:00.066Z,16.78
2018-10-18T08:56:00.029Z,16.78
2018-10-18T08:57:00.019Z,16.85
2018-10-18T08:58:00.016Z,16.99
2018-10-18T08:59:00.070Z,16.92
2018-10-18T09:00:00.008Z,16.99
2018-10-18T09:01:00.024Z,17.05
2018-10-18T09:02:00.006Z,17.06
2018-10-18T09:03:00.003Z,17.14
2018-10-18T09:03:59.999Z,17.09
2018-10-18T09:04:59.987Z,17.22
2018-10-18T09:05:59.985Z,17.17
2018-10-18T09:07:00.034Z,17.28
2018-10-18T09:07:59.978Z,17.38
2018-10-18T09:09:00.004Z,17.53
2018-10-18T09:09:59.976Z,17.51
2018-10-18T09:10:59.968Z,17.47
2018-10-18T09:11:59.962Z,17.47
2018-10-18T09:12:59.991Z,17.54
2018-10-18T09:13:59.962Z,17.60
2018-10-18T09:14:59.962Z,17.60
2018-10-18T09:16:00.038Z,17.81
2018-10-18T09:16:59.946Z,17.80
2018-10-18T09:17:59.943Z,17.95
2018-10-18T09:18:59.969Z,18.07
2018-10-18T09:19:59.936Z,18.10
2018-10-18T09:20:59.938Z,18.23
2018-10-18T09:21:59.936Z,18.39
2018-10-18T09:22:59.934Z,18.49
2018-10-18T09:23:59.929Z,18.68
2018-10-18T09:24:59.980Z,18.69
2018-10-18T09:25:59.918Z,18.78
2018-10-18T09:26:59.921Z,18.87
2018-10-18T09:27:59.917Z,18.76
2018-10-18T09:28:59.910Z,18.83
2018-10-18T09:29:59.908Z,18.91
2018-10-18T09:30:59.923Z,18.97
2018-10-18T09:31:59.903Z,19.01
2018-10-18T09:32:59.906Z,18.91
2018-10-18T09:33:59.905Z,18.90
2018-10-18T09:34:59.903Z,19.24
2018-10-18T09:35:59.900Z,19.57
2018-10-18T09:36:59.916Z,19.57
2018-10-18T09:37:59.892Z,19.52
2018-10-18T09:38:59.891Z,19.78
2018-10-18T09:39:59.890Z,20.00
2018-10-18T09:40:59.891Z,20.42
2018-10-18T09:41:59.888Z,21.03
2018-10-18T09:42:59.886Z,21.93
2018-10-18T09:43:59.881Z,22.88
2018-10-18T09:44:59.954Z,23.50
2018-10-18T09:45:59.885Z,23.89
2018-10-18T09:46:59.885Z,24.29
2018-10-18T09:47:59.886Z,24.75
2018-10-18T09:48:59.922Z,24.79
2018-10-18T09:49:59.881Z,25.14
2018-10-18T09:50:59.882Z,25.14
2018-10-18T09:51:59.884Z,25.17
2018-10-18T09:52:59.921Z,25.60
2018-10-18T09:53:59.892Z,26.24
2018-10-18T09:54:59.978Z,26.64
2018-10-18T09:55:59.907Z,26.42
2018-10-18T09:56:59.895Z,25.67
2018-10-18T09:57:59.899Z,25.51
2018-10-18T09:58:59.906Z,25.42
2018-10-18T09:59:59.910Z,24.84
2018-10-18T10:00:59.956Z,24.90
2018-10-18T10:01:59.914Z,25.63
2018-10-18T10:02:59.917Z,25.76
2018-10-18T10:03:59.968Z,26.60
2018-10-18T10:04:59.929Z,27.24
2018-10-18T10:05:59.935Z,27.24
2018-10-18T10:06:59.992Z,26.50
2018-10-18T10:07:59.942Z,25.67
2018-10-18T10:08:59.944Z,25.44
2018-10-18T10:09:59.949Z,25.54
2018-10-18T10:10:59.954Z,25.24
2018-10-18T10:11:59.958Z,25.04
2018-10-18T10:12:59.999Z,25.02
2018-10-18T10:13:59.974Z,23.90
2018-10-18T10:14:59.974Z,23.81
2018-10-18T10:15:59.978Z,23.54
2018-10-18T10:16:59.988Z,23.39
2018-10-18T10:17:59.997Z,23.12
2018-10-18T10:19:00.006Z,23.45
2018-10-18T10:20:00.000Z,23.39
2018-10-18T10:21:00.000Z,23.23
2018-10-18T10:22:00.005Z,22.86
2018-10-18T10:23:00.013Z,22.63
2018-10-18T10:24:00.012Z,22.56
2018-10-18T10:25:00.072Z,21.94
2018-10-18T10:26:00.023Z,21.64
2018-10-18T10:27:00.028Z,21.43
2018-10-18T10:28:00.031Z,21.75
2018-10-18T10:29:00.029Z,21.21
2018-10-18T10:30:00.032Z,21.06
2018-10-18T10:31:00.050Z,21.38
2018-10-18T10:32:00.041Z,21.38
2018-10-18T10:33:00.054Z,21.06
2018-10-18T10:34:00.041Z,20.94
2018-10-18T10:35:00.080Z,20.63
2018-10-18T10:36:00.046Z,20.78
2018-10-18T10:37:00.067Z,20.94
2018-10-18T10:38:00.052Z,21.21
2018-10-18T10:39:00.115Z,21.70
2018-10-18T10:40:00.058Z,22.23
2018-10-18T10:41:00.067Z,22.27
2018-10-18T10:42:00.107Z,22.99
2018-10-18T10:43:00.154Z,23.11
2018-10-18T10:44:00.107Z,23.50
2018-10-18T10:45:00.092Z,24.06
2018-10-18T10:46:00.110Z,24.83
2018-10-18T10:47:00.062Z,25.42
2018-10-18T10:48:00.125Z,25.48
2018-10-18T10:49:00.076Z,25.04
2018-10-18T10:50:00.122Z,24.15
2018-10-18T10:51:00.094Z,24.14
2018-10-18T10:52:00.121Z,24.63
2018-10-18T10:53:00.079Z,25.14
2018-10-18T10:54:00.122Z,24.90
2018-10-18T10:55:00.085Z,25.26
2018-10-18T10:56:00.143Z,25.04
2018-10-18T10:57:00.128Z,23.97
2018-10-18T10:58:00.104Z,24.51
2018-10-18T10:59:00.142Z,24.36
2018-10-18T11:00:00.123Z,24.86
2018-10-18T11:01:00.106Z,25.45
2018-10-18T11:02:00.157Z,25.71
2018-10-18T11:03:00.150Z,25.35
2018-10-18T11:04:00.127Z,24.55
2018-10-18T11:05:00.123Z,25.02
2018-10-18T11:06:00.176Z,24.74
2018-10-18T11:07:00.130Z,25.14
2018-10-18T11:08:00.147Z,24.63
2018-10-18T11:09:00.202Z,24.51
2018-10-18T11:10:00.148Z,24.84
2018-10-18T11:11:00.152Z,25.51
2018-10-18T11:12:00.270Z,24.90
2018-10-18T11:13:00.156Z,24.82
2018-10-18T11:14:00.164Z,24.33
2018-10-18T11:15:00.235Z,23.99
2018-10-18T11:16:00.167Z,23.50
2018-10-18T11:17:00.250Z,22.49
2018-10-18T11:18:00.184Z,22.19
2018-10-18T11:19:00.179Z,21.94
2018-10-18T11:20:00.202Z,21.81
2018-10-18T11:21:00.236Z,21.71
2018-10-18T11:22:00.195Z,21.31
2018-10-18T11:23:00.198Z,21.06
2018-10-18T11:24:00.225Z,21.21
2018-10-18T11:25:00.197Z,21.19
2018-10-18T11:26:00.213Z,21.11
2018-10-18T11:27:00.254Z,20.91
2018-10-18T11:28:00.204Z,20.64
2018-10-18T11:29:00.209Z,20.50
2018-10-18T11:30:00.244Z,20.44
2018-10-18T11:31:00.214Z,20.57
2018-10-18T11:32:00.268Z,20.88
2018-10-18T11:33:00.248Z,21.09
2018-10-18T11:34:00.211Z,21.24
2018-10-18T11:35:00.216Z,21.27
2018-10-18T11:36:00.244Z,21.30
2018-10-18T11:37:00.213Z,21.05
2018-10-18T11:38:00.243Z,20.85
2018-10-18T11:39:00.216Z,20.94
2018-10-18T11:40:00.215Z,20.71
2018-10-18T11:41:00.221Z,20.81
2018-10-18T11:42:00.224Z,20.73
2018-10-18T11:43:00.222Z,20.81
2018-10-18T11:44:00.238Z,21.03
2018-10-18T11:45:00.216Z,21.24
2018-10-18T11:46:00.217Z,21.30
2018-10-18T11:47:00.216Z,21.36
2018-10-18T11:48:00.224Z,21.55
2018-10-18T11:49:00.228Z,21.37
2018-10-18T11:50:00.247Z,21.13
2018-10-18T11:51:00.217Z,20.91
2018-10-18T11:52:00.239Z,20.82
2018-10-18T11:53:00.221Z,20.76
2018-10-18T11:54:00.270Z,20.66
2018-10-18T11:55:00.222Z,20.61
2018-10-18T11:56:00.243Z,20.73
2018-10-18T11:57:00.214Z,20.82
2018-10-18T11:58:00.215Z,20.87
2018-10-18T11:59:00.217Z,20.97
2018-10-18T12:00:00.216Z,21.06
2018-10-18T12:01:00.241Z,21.21
2018-10-18T12:02:00.239Z,21.19
2018-10-18T12:03:00.218Z,21.09
2018-10-18T12:04:00.216Z,21.13
2018-10-18T12:05:00.238Z,21.18
2018-10-18T12:06:00.214Z,21.13
2018-10-18T12:07:00.215Z,21.16
2018-10-18T12:08:00.237Z,21.21
2018-10-18T12:09:00.207Z,21.38
2018-10-18T12:10:00.208Z,21.42
2018-10-18T12:11:00.231Z,21.42
2018-10-18T12:12:00.206Z,21.42
2018-10-18T12:13:00.212Z,21.42
2018-10-18T12:14:00.286Z,21.38
2018-10-18T12:15:00.211Z,21.30
2018-10-18T12:16:00.208Z,21.26
2018-10-18T12:17:00.229Z,21.31
2018-10-18T12:18:00.204Z,21.30
2018-10-18T12:19:00.240Z,21.37
2018-10-18T12:20:00.245Z,21.38
2018-10-18T12:21:00.208Z,21.53
2018-10-18T12:22:00.207Z,21.51
2018-10-18T12:23:00.252Z,21.45
2018-10-18T12:24:00.201Z,21.48
2018-10-18T12:25:00.206Z,21.38
2018-10-18T12:26:00.222Z,21.40
2018-10-18T12:27:00.307Z,21.37
2018-10-18T12:28:00.203Z,21.37
2018-10-18T12:29:00.234Z,21.16
2018-10-18T12:30:00.197Z,21.08
2018-10-18T12:31:00.198Z,21.01
2018-10-18T12:32:00.255Z,20.85
2018-10-18T12:33:00.200Z,20.91
2018-10-18T12:34:00.200Z,20.97
2018-10-18T12:35:00.245Z,21.05
2018-10-18T12:36:00.200Z,21.11
2018-10-18T12:37:00.194Z,21.19
2018-10-18T12:38:00.245Z,21.08
2018-10-18T12:39:00.202Z,20.82
2018-10-18T12:40:00.197Z,20.79
2018-10-18T12:41:00.385Z,20.85
2018-10-18T12:42:00.268Z,20.69
2018-10-18T12:43:00.191Z,20.68
2018-10-18T12:44:00.219Z,20.69
2018-10-18T12:45:00.194Z,20.61
2018-10-18T12:46:00.193Z,20.50
2018-10-18T12:47:00.193Z,20.33
2018-10-18T12:48:00.235Z,20.35
2018-10-18T12:49:00.185Z,20.40
2018-10-18T12:50:00.213Z,20.40
2018-10-18T12:51:00.183Z,20.46
2018-10-18T12:52:00.186Z,20.46